Maurilandia, Brazil
Current Conditions -  °F | °C
As of 1:00 PM on Wednesday 26 Nov 2014 (Local Time) from SBGO Reporting Station
Scattered Clouds Scattered Clouds  
Wind Chill: 81°   Ceiling: Unl
Heat Index: 82°   Visibility: 6mi
Dew Point: 64°   Wind: 13mph
Humidity: 58%   Direction: 330°NNW
Pressure: 29.97"   Gusts: NA
Location:  17.98°S, 50.33°W
Report Text: SBGO 261500Z 33011KT 9999 SCT020 SCT080 27/18 Q1015
Loading
Personal Weather Stations






























Interactive Weather Map New forecast layout! Learn more

10-Day Weather Forecast

Advertisements
Track Severe Weather on mobile